Time;durP1;ratioP1;P1;durP2;ratioP2;P2;SDS_P1;SDS_P2;PMS_P1;PMS_P2;Temp;Humidity;BMP_temperature;BMP_pressure;BME280_temperature;BME280_humidity;BME280_pressure;Samples;Min_cycle;Max_cycle;Signal;HPM_P1;HPM_P2
2021/01/04 00:02:35;;;;;;;37.63;21.80;;;;;;;0.75;95.02;96231.19;5103299;28;20235;-70
2021/01/04 00:05:34;;;;;;;37.17;20.90;;;;;;;0.55;96.06;96232.72;5112351;28;20183;-70
2021/01/04 00:08:00;;;;;;;38.67;21.40;;;;;;;0.65;95.76;96228.09;5112235;28;20168;-70
2021/01/04 00:10:40;;;;;;;35.93;21.97;;;;;;;0.59;95.44;96226.22;5113164;28;20213;-70
2021/01/04 00:13:24;;;;;;;35.53;20.57;;;;;;;0.52;96.03;96232.25;5112821;28;20227;-70
2021/01/04 00:15:56;;;;;;;37.40;20.60;;;;;;;0.30;97.23;96239.88;5112384;28;20171;-71
2021/01/04 00:18:27;;;;;;;35.70;20.33;;;;;;;0.43;96.46;96228.19;5096819;28;20642;-70
2021/01/04 00:21:08;;;;;;;35.93;21.20;;;;;;;0.62;95.65;96223.28;5110445;28;20214;-70
2021/01/04 00:23:46;;;;;;;38.93;22.27;;;;;;;0.68;95.59;96221.75;5112572;28;20199;-70
2021/01/04 00:26:21;;;;;;;38.50;22.30;;;;;;;0.68;95.47;96222.56;5112449;28;20401;-71
2021/01/04 00:28:47;;;;;;;37.03;21.77;;;;;;;0.67;95.62;96226.13;5111704;28;20221;-70
2021/01/04 00:31:15;;;;;;;36.13;22.03;;;;;;;0.77;94.99;96221.50;5112981;28;20240;-71
2021/01/04 00:33:41;;;;;;;34.47;20.77;;;;;;;0.70;95.43;96230.13;5111704;28;20196;-71
2021/01/04 00:36:24;;;;;;;35.80;21.87;;;;;;;0.73;96.08;96235.72;5112709;28;20172;-71
2021/01/04 00:39:30;;;;;;;33.83;21.23;;;;;;;0.89;95.16;96224.44;5111416;28;20546;-70
2021/01/04 00:42:08;;;;;;;36.03;21.10;;;;;;;0.81;94.60;96233.06;5097288;28;20286;-71
2021/01/04 00:44:51;;;;;;;39.10;22.40;;;;;;;0.61;95.96;96229.44;5112660;28;20206;-71
2021/01/04 00:48:01;;;;;;;34.43;21.60;;;;;;;0.47;96.43;96227.63;5112973;28;20182;-71
2021/01/04 00:50:51;;;;;;;37.53;21.50;;;;;;;0.58;96.08;96234.94;5109709;28;20195;-70
2021/01/04 00:53:29;;;;;;;37.17;22.03;;;;;;;0.83;95.33;96225.16;5111666;28;20208;-71
2021/01/04 00:56:13;;;;;;;36.17;22.30;;;;;;;0.78;96.03;96228.25;5110339;28;20179;-70
2021/01/04 00:58:54;;;;;;;34.33;20.87;;;;;;;0.83;95.02;96223.38;5110642;28;20578;-70
2021/01/04 01:01:32;;;;;;;37.90;22.63;;;;;;;0.81;94.67;96234.84;5102577;28;20235;-71
2021/01/04 01:04:19;;;;;;;32.33;19.60;;;;;;;0.56;95.57;96234.31;5084968;28;20256;-71
2021/01/04 01:06:57;;;;;;;35.67;22.33;;;;;;;0.55;95.39;96225.00;5090552;28;20172;-70
2021/01/04 01:09:24;;;;;;;33.63;21.90;;;;;;;0.30;97.29;96226.19;5092126;28;20173;-70
2021/01/04 01:12:09;;;;;;;31.20;19.97;;;;;;;0.29;96.97;96237.47;5090569;28;20193;-70
2021/01/04 01:14:42;;;;;;;32.73;18.77;;;;;;;0.11;97.45;96234.47;5092346;28;20200;-70
2021/01/04 01:17:44;;;;;;;29.10;19.70;;;;;;;0.18;97.79;96238.72;5092140;28;20179;-70
2021/01/04 01:20:15;;;;;;;29.23;18.87;;;;;;;0.04;98.08;96247.22;5091919;28;20525;-70
2021/01/04 01:22:41;;;;;;;34.23;20.90;;;;;;;0.21;97.65;96246.13;5091595;28;20172;-71
2021/01/04 01:25:15;;;;;;;32.87;20.77;;;;;;;0.30;96.32;96249.41;5092447;28;20560;-71
2021/01/04 01:27:49;;;;;;;30.40;19.43;;;;;;;0.13;96.87;96253.91;5091508;28;20160;-71
2021/01/04 01:30:29;;;;;;;32.33;20.17;;;;;;;0.02;98.33;96244.00;5084553;28;20658;-71
2021/01/04 01:33:13;;;;;;;32.87;19.97;;;;;;;0.21;97.75;96250.47;5090061;28;20217;-70
2021/01/04 01:35:58;;;;;;;31.03;19.73;;;;;;;0.41;97.21;96236.88;5091429;28;20532;-71
2021/01/04 01:39:00;;;;;;;32.90;21.67;;;;;;;0.72;95.51;96243.66;5085029;28;20168;-71
2021/01/04 01:41:53;;;;;;;32.67;20.23;;;;;;;0.80;95.19;96248.72;5091188;28;20258;-71
2021/01/04 01:44:43;;;;;;;32.67;19.53;;;;;;;0.65;94.66;96245.34;5076007;28;20622;-70
2021/01/04 01:47:24;;;;;;;30.20;19.87;;;;;;;0.80;94.31;96248.72;5091807;28;20164;-72
2021/01/04 01:50:22;;;;;;;29.13;19.23;;;;;;;0.63;93.88;96242.94;5090311;28;20273;-70
2021/01/04 01:53:14;;;;;;;30.30;19.23;;;;;;;0.65;94.06;96253.88;5086349;28;20227;-70
2021/01/04 01:56:13;;;;;;;29.57;18.20;;;;;;;0.64;93.77;96248.88;5091133;28;20259;-71
2021/01/04 01:59:04;;;;;;;32.03;19.80;;;;;;;0.63;94.23;96250.66;5077920;28;20188;-71
2021/01/04 02:01:38;;;;;;;30.53;19.80;;;;;;;0.84;93.54;96247.38;5095236;27;20592;-71
2021/01/04 02:04:30;;;;;;;31.23;19.83;;;;;;;0.94;93.21;96245.34;5113399;28;20271;-71
2021/01/04 02:07:24;;;;;;;29.93;18.93;;;;;;;0.92;92.53;96249.06;5112657;28;20203;-71
2021/01/04 02:09:58;;;;;;;28.37;17.60;;;;;;;0.71;93.31;96249.78;5114822;28;20160;-71
2021/01/04 02:13:03;;;;;;;28.77;18.67;;;;;;;0.46;94.35;96245.84;5115864;28;20168;-71
2021/01/04 02:15:52;;;;;;;27.00;18.03;;;;;;;0.67;93.98;96246.75;5115686;28;20167;-71
2021/01/04 02:18:48;;;;;;;30.00;18.93;;;;;;;0.82;93.00;96250.16;5115659;28;20176;-71
2021/01/04 02:22:05;;;;;;;31.00;19.23;;;;;;;0.85;93.43;96248.97;5111552;28;20216;-71
2021/01/04 02:24:30;;;;;;;29.83;18.93;;;;;;;0.97;92.79;96242.38;5097410;28;20216;-71
2021/01/04 02:27:09;;;;;;;31.87;20.53;;;;;;;0.80;93.22;96240.97;5114899;28;20187;-71
2021/01/04 02:29:35;;;;;;;30.37;19.90;;;;;;;0.96;92.75;96240.78;5115613;28;20191;-71
2021/01/04 02:32:05;;;;;;;28.27;19.23;;;;;;;1.02;92.33;96245.22;5115098;27;20172;-71
2021/01/04 02:34:35;;;;;;;31.77;19.10;;;;;;;1.07;91.92;96242.09;5115606;28;20195;-71
2021/01/04 02:37:02;;;;;;;29.37;19.63;;;;;;;1.05;92.31;96244.88;5114081;28;20172;-71
2021/01/04 02:39:51;;;;;;;32.47;20.60;;;;;;;1.07;92.23;96236.94;5113304;28;20638;-72
2021/01/04 02:42:33;;;;;;;31.33;18.13;;;;;;;0.74;92.62;96241.69;5115204;28;20212;-71
2021/01/04 02:45:01;;;;;;;31.17;19.13;;;;;;;0.62;93.41;96240.53;5114405;28;20685;-70
2021/01/04 02:47:45;;;;;;;33.13;20.17;;;;;;;0.45;95.27;96242.47;5115202;28;20182;-70
2021/01/04 02:50:23;;;;;;;31.13;19.70;;;;;;;0.76;94.47;96240.53;5115219;28;20216;-71
2021/01/04 02:53:24;;;;;;;29.37;19.43;;;;;;;1.01;92.28;96241.03;5114336;28;20180;-70
2021/01/04 02:56:12;;;;;;;39.03;21.47;;;;;;;1.07;91.79;96249.81;5089500;28;20188;-71
2021/01/04 02:59:00;;;;;;;32.47;20.00;;;;;;;1.11;91.72;96248.50;5094611;28;20208;-71
2021/01/04 03:01:49;;;;;;;33.03;20.67;;;;;;;1.10;92.09;96241.75;5090331;28;20281;-71
2021/01/04 03:04:18;;;;;;;33.57;20.30;;;;;;;1.13;91.45;96246.53;5093874;28;20236;-71
2021/01/04 03:06:55;;;;;;;30.77;19.37;;;;;;;1.09;91.85;96247.88;5080388;28;20172;-71
2021/01/04 03:09:23;;;;;;;29.07;19.17;;;;;;;0.96;92.43;96250.28;5094318;28;20536;-71
2021/01/04 03:11:49;;;;;;;29.90;19.00;;;;;;;1.05;91.69;96252.63;5093412;28;20145;-71
2021/01/04 03:14:23;;;;;;;29.20;18.73;;;;;;;1.05;91.75;96252.63;5094213;28;20198;-70
2021/01/04 03:17:07;;;;;;;29.53;18.50;;;;;;;1.04;92.11;96255.38;5080671;28;20526;-71
2021/01/04 03:19:39;;;;;;;34.20;19.77;;;;;;;0.96;92.08;96253.66;5094457;28;20220;-71
2021/01/04 03:22:09;;;;;;;29.67;18.90;;;;;;;0.88;92.19;96247.81;5093109;28;20181;-71
2021/01/04 03:24:34;;;;;;;30.80;19.83;;;;;;;0.70;92.40;96249.00;5093267;28;20287;-71
2021/01/04 03:27:07;;;;;;;31.47;19.00;;;;;;;0.87;92.63;96243.63;5093312;28;20577;-72
2021/01/04 03:29:32;;;;;;;29.70;19.37;;;;;;;0.91;91.96;96245.69;5092555;28;20180;-71
2021/01/04 03:31:58;;;;;;;25.60;16.90;;;;;;;0.73;91.51;96237.50;5093545;28;20520;-71
2021/01/04 03:34:23;;;;;;;25.70;17.80;;;;;;;0.91;91.21;96240.50;5093436;28;20338;-74
2021/01/04 03:36:49;;;;;;;30.00;18.27;;;;;;;0.94;91.08;96237.59;5091531;28;20165;-71
2021/01/04 03:39:15;;;;;;;29.77;18.57;;;;;;;0.92;91.34;96236.97;5093796;28;20177;-71
2021/01/04 03:41:40;;;;;;;29.93;19.10;;;;;;;0.85;91.35;96238.66;5093159;28;20193;-71
2021/01/04 03:44:06;;;;;;;30.13;20.37;;;;;;;0.92;91.88;96239.53;5092342;28;21131;-71
2021/01/04 03:46:31;;;;;;;32.30;19.37;;;;;;;0.90;91.65;96244.06;5093792;28;20165;-70
2021/01/04 03:48:57;;;;;;;29.03;19.57;;;;;;;0.98;92.06;96245.75;5092612;28;20204;-69
2021/01/04 03:51:22;;;;;;;32.07;19.67;;;;;;;0.90;91.62;96251.81;5092961;28;20176;-69
2021/01/04 03:53:48;;;;;;;31.33;19.67;;;;;;;0.97;91.25;96249.31;5092270;28;20694;-69
2021/01/04 03:56:18;;;;;;;33.13;20.83;;;;;;;0.84;91.92;96249.94;5093120;28;20173;-69
2021/01/04 03:58:43;;;;;;;27.80;19.03;;;;;;;0.98;91.44;96249.16;5093133;28;20185;-69
2021/01/04 04:01:09;;;;;;;27.43;19.10;;;;;;;0.99;90.87;96249.94;5094432;28;20235;-70
2021/01/04 04:03:34;;;;;;;33.00;19.27;;;;;;;0.75;92.06;96253.59;5113392;28;20548;-69
2021/01/04 04:06:00;;;;;;;28.27;18.37;;;;;;;0.91;92.04;96252.59;5112356;28;20172;-69
2021/01/04 04:08:26;;;;;;;30.20;19.23;;;;;;;0.95;91.18;96248.72;5113765;27;20665;-70
2021/01/04 04:10:52;;;;;;;32.40;19.70;;;;;;;0.73;92.35;96252.97;5112124;28;20212;-69
2021/01/04 04:13:18;;;;;;;35.33;21.37;;;;;;;0.95;91.00;96257.22;5113333;28;20203;-69
2021/01/04 04:15:50;;;;;;;30.10;19.20;;;;;;;0.83;92.28;96251.75;5112989;28;20175;-69
2021/01/04 04:18:15;;;;;;;30.93;20.73;;;;;;;0.80;91.97;96246.94;5113385;28;20194;-69
2021/01/04 04:20:41;;;;;;;29.73;19.20;;;;;;;0.67;92.12;96245.97;5113170;28;20188;-70
2021/01/04 04:23:06;;;;;;;36.13;20.67;;;;;;;0.78;92.38;96248.09;5112544;28;20206;-69
2021/01/04 04:25:31;;;;;;;31.83;19.13;;;;;;;0.57;93.72;96253.16;5112825;27;20268;-70
2021/01/04 04:27:57;;;;;;;31.60;19.23;;;;;;;0.63;93.05;96252.44;5112603;28;20171;-69
2021/01/04 04:30:24;;;;;;;30.87;19.57;;;;;;;0.66;92.80;96255.47;5113240;28;20172;-69
2021/01/04 04:32:55;;;;;;;29.23;18.93;;;;;;;0.59;92.94;96256.34;5112523;28;20184;-69
2021/01/04 04:35:22;;;;;;;30.23;19.00;;;;;;;0.64;93.16;96254.84;5113198;28;20180;-70
2021/01/04 04:37:48;;;;;;;32.37;19.47;;;;;;;0.71;92.18;96250.59;5112410;28;20171;-69
2021/01/04 04:40:19;;;;;;;32.40;19.43;;;;;;;0.68;92.71;96247.56;5113596;28;20179;-69
2021/01/04 04:42:46;;;;;;;31.93;19.90;;;;;;;0.55;93.45;96252.53;5111218;28;20184;-69
2021/01/04 04:45:18;;;;;;;32.50;20.80;;;;;;;0.67;93.90;96249.31;5112098;28;20172;-69
2021/01/04 04:48:09;;;;;;;31.30;20.60;;;;;;;0.75;93.62;96251.03;5111635;28;20199;-70
2021/01/04 04:51:20;;;;;;;34.77;20.80;;;;;;;0.78;92.98;96261.00;5112530;28;20259;-69
2021/01/04 04:54:36;;;;;;;34.20;20.77;;;;;;;0.83;93.13;96263.84;5112028;28;20204;-69
2021/01/04 04:57:19;;;;;;;32.83;20.27;;;;;;;0.70;92.87;96258.50;5068800;28;20272;-69
2021/01/04 05:00:07;;;;;;;32.70;18.77;;;;;;;0.73;92.42;96264.09;5107095;28;20172;-69
2021/01/04 05:02:48;;;;;;;34.00;20.57;;;;;;;0.65;93.47;96263.38;5092178;28;20752;-70
2021/01/04 05:05:20;;;;;;;34.13;21.20;;;;;;;0.54;93.97;96258.69;5091508;28;20208;-70
2021/01/04 05:08:09;;;;;;;32.03;19.93;;;;;;;0.69;93.85;96259.47;5091900;28;20173;-70
2021/01/04 05:10:37;;;;;;;37.27;21.37;;;;;;;0.71;94.31;96262.69;5092054;28;20674;-70
2021/01/04 05:13:09;;;;;;;32.70;21.07;;;;;;;0.74;94.02;96257.97;5090935;28;20209;-70
2021/01/04 05:15:43;;;;;;;32.27;20.67;;;;;;;0.88;93.88;96263.31;5090718;28;20661;-70
2021/01/04 05:18:23;;;;;;;38.30;20.37;;;;;;;0.99;93.52;96268.81;5091216;28;20908;-70
2021/01/04 05:20:51;;;;;;;37.13;22.00;;;;;;;0.99;93.28;96261.06;5091410;28;20203;-70
2021/01/04 05:23:43;;;;;;;35.73;20.80;;;;;;;0.99;92.88;96262.84;5092187;28;20292;-70
2021/01/04 05:26:41;;;;;;;34.37;21.57;;;;;;;1.10;92.16;96262.38;5091021;28;20172;-70
2021/01/04 05:29:25;;;;;;;34.67;22.13;;;;;;;1.00;92.62;96265.25;5091411;28;20806;-71
2021/01/04 05:31:50;;;;;;;32.83;20.77;;;;;;;0.90;92.16;96263.91;5091165;28;20215;-70
2021/01/04 05:34:38;;;;;;;34.23;21.73;;;;;;;1.09;91.70;96266.75;5091276;28;20227;-70
2021/01/04 05:37:25;;;;;;;34.23;20.57;;;;;;;0.96;91.97;96269.16;5090470;28;20181;-70
2021/01/04 05:39:56;;;;;;;30.17;19.93;;;;;;;0.95;91.41;96262.38;5090834;28;20176;-69
2021/01/04 05:42:39;;;;;;;31.37;20.90;;;;;;;1.02;91.07;96258.13;5090940;28;20218;-70
2021/01/04 05:45:21;;;;;;;33.60;21.30;;;;;;;0.85;91.56;96261.88;5076891;28;20180;-70
2021/01/04 05:48:10;;;;;;;33.83;21.60;;;;;;;0.69;92.04;96256.91;5091625;28;20257;-70
2021/01/04 05:51:15;;;;;;;31.57;20.40;;;;;;;0.41;93.40;96260.06;5091539;28;20173;-70
2021/01/04 05:53:42;;;;;;;34.37;21.70;;;;;;;0.43;94.12;96266.84;5091352;28;20243;-70
2021/01/04 05:56:07;;;;;;;33.10;21.97;;;;;;;0.38;95.25;96270.75;5090924;28;20176;-70
2021/01/04 05:58:35;;;;;;;33.77;20.70;;;;;;;0.46;94.80;96271.63;5091305;28;20308;-70
2021/01/04 06:01:16;;;;;;;33.03;21.27;;;;;;;0.35;95.20;96265.94;5096080;28;20771;-70
2021/01/04 06:03:53;;;;;;;34.13;21.23;;;;;;;0.52;95.81;96268.34;5147026;27;20244;-70
2021/01/04 06:06:29;;;;;;;31.73;20.13;;;;;;;0.63;94.59;96260.19;5145481;27;20630;-70
2021/01/04 06:09:00;;;;;;;30.93;19.77;;;;;;;0.71;94.67;96255.75;5144686;27;20175;-70
2021/01/04 06:11:25;;;;;;;32.87;20.20;;;;;;;0.77;94.00;96255.03;5135909;27;20191;-70
2021/01/04 06:13:56;;;;;;;31.97;20.23;;;;;;;0.87;93.80;96261.69;5135592;27;20221;-69
2021/01/04 06:16:27;;;;;;;32.27;20.57;;;;;;;0.80;94.14;96259.03;5140806;27;20179;-68
2021/01/04 06:19:04;;;;;;;32.67;20.37;;;;;;;0.79;93.72;96258.22;5139409;27;20259;-68
2021/01/04 06:21:52;;;;;;;34.40;21.33;;;;;;;0.95;93.08;96259.81;5149254;27;20232;-69
2021/01/04 06:24:28;;;;;;;31.90;20.80;;;;;;;1.03;92.45;96258.91;5137752;27;20303;-67
2021/01/04 06:27:01;;;;;;;30.93;19.90;;;;;;;0.85;92.62;96267.03;5139124;27;20179;-70
2021/01/04 06:29:34;;;;;;;30.57;20.00;;;;;;;0.80;92.63;96267.56;5132694;27;20680;-70
2021/01/04 06:32:03;;;;;;;31.50;19.90;;;;;;;0.59;93.48;96264.91;5132518;27;20178;-70
2021/01/04 06:34:35;;;;;;;30.67;20.27;;;;;;;0.90;92.10;96269.06;5145974;27;20259;-70
2021/01/04 06:37:13;;;;;;;32.57;21.23;;;;;;;0.91;92.13;96270.66;5141972;27;20688;-70
2021/01/04 06:39:40;;;;;;;30.47;19.13;;;;;;;0.91;92.50;96266.31;5147260;27;20205;-70
2021/01/04 06:42:09;;;;;;;31.87;20.33;;;;;;;0.97;92.43;96272.53;5143049;27;20210;-66
2021/01/04 06:44:35;;;;;;;34.50;21.33;;;;;;;0.90;92.11;96269.06;5143699;27;20194;-67
2021/01/04 06:47:40;;;;;;;31.80;20.37;;;;;;;0.96;92.20;96265.78;5141942;27;20167;-66
2021/01/04 06:50:11;;;;;;;33.30;20.43;;;;;;;1.14;91.44;96266.19;5149955;27;20178;-66
2021/01/04 06:53:11;;;;;;;30.90;19.97;;;;;;;1.15;91.89;96265.22;5143394;27;20207;-67
2021/01/04 06:56:13;;;;;;;28.97;18.87;;;;;;;1.09;91.61;96264.16;5148350;27;20266;-66
2021/01/04 06:58:44;;;;;;;33.83;20.63;;;;;;;1.04;90.98;96266.50;5138881;27;20178;-66
2021/01/04 07:01:34;;;;;;;31.80;20.47;;;;;;;1.12;91.03;96266.38;5140689;27;20316;-66
2021/01/04 07:04:25;;;;;;;33.37;19.97;;;;;;;1.06;91.55;96266.31;5096011;27;20212;-66
2021/01/04 07:07:03;;;;;;;33.77;20.70;;;;;;;1.23;91.68;96268.50;5126611;27;20258;-66
2021/01/04 07:10:17;;;;;;;30.23;20.10;;;;;;;1.18;91.01;96267.44;5105370;27;20573;-66
2021/01/04 07:13:06;;;;;;;34.50;20.43;;;;;;;1.24;90.60;96266.72;5091646;28;20198;-68
2021/01/04 07:15:32;;;;;;;30.63;20.23;;;;;;;1.10;90.80;96267.53;5120113;27;20198;-68
2021/01/04 07:18:16;;;;;;;32.37;20.43;;;;;;;1.20;91.04;96265.47;5120078;27;20176;-67
2021/01/04 07:21:00;;;;;;;32.47;20.33;;;;;;;1.09;91.64;96268.53;5117794;27;20262;-66
2021/01/04 07:23:47;;;;;;;31.63;20.17;;;;;;;1.24;91.62;96264.94;5125415;27;20666;-70
2021/01/04 07:26:44;;;;;;;31.00;19.67;;;;;;;1.35;90.60;96273.19;5126725;27;20196;-68
2021/01/04 07:29:50;;;;;;;31.03;20.10;;;;;;;1.27;90.84;96276.69;5124531;27;20182;-67
2021/01/04 07:32:50;;;;;;;30.63;19.57;;;;;;;1.04;91.27;96281.97;5118299;27;20543;-67
2021/01/04 07:35:41;;;;;;;31.23;19.57;;;;;;;1.10;91.10;96283.84;5126078;27;20232;-68
2021/01/04 07:38:30;;;;;;;30.40;19.73;;;;;;;1.03;91.04;96284.72;5123347;27;20660;-67
2021/01/04 07:41:18;;;;;;;32.23;20.20;;;;;;;0.94;91.14;96281.44;5115468;27;20199;-67
2021/01/04 07:44:02;;;;;;;34.83;20.07;;;;;;;0.95;91.99;96287.41;5122963;27;20195;-67
2021/01/04 07:47:01;;;;;;;27.27;18.63;;;;;;;1.00;90.84;96287.66;5115310;27;20179;-66
2021/01/04 07:49:59;;;;;;;30.50;18.93;;;;;;;0.90;91.17;96289.69;5125077;27;20211;-66
2021/01/04 07:52:49;;;;;;;29.77;19.73;;;;;;;1.05;91.23;96282.78;5130621;27;20709;-67
2021/01/04 07:55:33;;;;;;;31.93;20.03;;;;;;;1.13;90.41;96280.06;5118748;27;20181;-67
2021/01/04 07:58:01;;;;;;;32.23;20.80;;;;;;;1.28;90.40;96283.47;5127036;27;20171;-67
2021/01/04 08:03:16;;;;;;;31.10;20.20;;;;;;;0.83;92.00;96287.06;5125299;27;20239;-67
2021/01/04 08:06:04;;;;;;;34.43;20.57;;;;;;;0.63;92.89;96294.50;5139328;27;20202;-67
2021/01/04 08:08:39;;;;;;;34.37;19.73;;;;;;;0.75;93.59;96292.28;5136670;27;20190;-67
2021/01/04 08:11:32;;;;;;;32.53;20.63;;;;;;;0.89;92.91;96290.69;5141910;27;20716;-67
2021/01/04 08:13:57;;;;;;;29.10;19.70;;;;;;;0.85;92.24;96295.41;5140148;27;20589;-67
2021/01/04 08:16:35;;;;;;;31.20;19.97;;;;;;;1.04;91.21;96294.06;5149916;27;20171;-67
2021/01/04 08:19:04;;;;;;;29.63;19.00;;;;;;;1.04;91.04;96287.13;5141515;27;20189;-67
2021/01/04 08:22:11;;;;;;;30.80;20.23;;;;;;;1.12;90.40;96291.38;5142414;27;20585;-67
2021/01/04 08:24:43;;;;;;;31.93;19.80;;;;;;;1.19;90.73;96300.00;5083485;27;20210;-68
2021/01/04 08:27:22;;;;;;;33.47;20.80;;;;;;;1.06;91.83;96289.53;5141926;27;20551;-67
2021/01/04 08:29:48;;;;;;;30.87;20.07;;;;;;;0.97;91.53;96293.97;5136668;27;20568;-67
2021/01/04 08:32:25;;;;;;;30.13;20.10;;;;;;;0.99;92.04;96288.66;5132239;27;20180;-67
2021/01/04 08:34:51;;;;;;;30.87;20.57;;;;;;;1.27;91.13;96288.78;5139110;27;20201;-67
2021/01/04 08:37:33;;;;;;;31.47;19.60;;;;;;;1.28;91.37;96300.72;5143824;27;20174;-68
2021/01/04 08:40:19;;;;;;;30.37;19.33;;;;;;;1.47;90.99;96298.34;5144151;27;20186;-66
2021/01/04 08:42:44;;;;;;;32.03;20.30;;;;;;;1.48;90.43;96305.13;5136908;27;20206;-66
2021/01/04 08:45:16;;;;;;;34.10;19.80;;;;;;;1.53;90.98;96302.00;5136946;27;20170;-65
2021/01/04 08:47:51;;;;;;;29.03;19.23;;;;;;;1.33;90.92;96308.72;5145408;27;20535;-65
2021/01/04 08:50:22;;;;;;;32.27;19.43;;;;;;;1.43;90.66;96317.78;5135516;27;20688;-66
2021/01/04 08:52:51;;;;;;;32.53;20.53;;;;;;;1.15;90.97;96309.91;5152126;27;20171;-68
2021/01/04 08:55:31;;;;;;;30.67;19.93;;;;;;;1.11;91.92;96307.88;5145195;27;20179;-64
2021/01/04 08:58:13;;;;;;;30.10;19.40;;;;;;;1.18;92.16;96312.09;5132986;27;20179;-64
2021/01/04 09:00:38;;;;;;;29.73;19.90;;;;;;;1.02;91.39;96309.72;5132841;27;20580;-63
2021/01/04 09:03:16;;;;;;;29.17;18.60;;;;;;;1.07;91.29;96311.75;5112450;27;20217;-64
2021/01/04 09:05:41;;;;;;;31.57;19.20;;;;;;;1.05;91.86;96318.91;5124025;27;20200;-63
2021/01/04 09:08:08;;;;;;;28.93;19.00;;;;;;;1.01;92.08;96321.00;5122946;27;20175;-63
2021/01/04 09:10:47;;;;;;;30.77;19.63;;;;;;;0.87;92.42;96326.97;5121752;27;20199;-64
2021/01/04 09:13:22;;;;;;;30.83;19.07;;;;;;;1.03;92.37;96321.66;5127403;27;20234;-69
2021/01/04 09:15:49;;;;;;;30.30;18.13;;;;;;;1.03;92.19;96319.06;5111549;27;20183;-63
2021/01/04 09:18:31;;;;;;;30.00;19.43;;;;;;;1.15;91.39;96320.22;5110376;27;20203;-63
2021/01/04 09:21:01;;;;;;;34.47;20.80;;;;;;;1.16;90.59;96316.66;5098461;27;20227;-63
2021/01/04 09:23:32;;;;;;;31.00;19.20;;;;;;;1.08;91.57;96316.75;5121755;27;20203;-66
2021/01/04 09:26:03;;;;;;;28.17;19.33;;;;;;;1.00;92.62;96316.84;5116984;27;20176;-62
2021/01/04 09:28:40;;;;;;;28.07;18.13;;;;;;;1.18;92.46;96319.03;5128381;27;20183;-64
2021/01/04 09:31:06;;;;;;;28.60;18.63;;;;;;;1.25;91.66;96318.16;5114659;27;20178;-64
2021/01/04 09:33:32;;;;;;;28.00;18.30;;;;;;;1.21;90.99;96318.69;5111240;28;20215;-64
2021/01/04 09:36:03;;;;;;;27.93;18.70;;;;;;;1.18;91.19;96313.88;5112866;28;20160;-64
2021/01/04 09:38:29;;;;;;;28.80;18.07;;;;;;;1.17;91.41;96313.09;5132542;27;20163;-64
2021/01/04 09:40:57;;;;;;;27.13;18.30;;;;;;;1.31;91.05;96305.50;5129967;27;20536;-67
2021/01/04 09:43:25;;;;;;;27.87;18.53;;;;;;;1.09;90.91;96300.28;5112101;28;20211;-65
2021/01/04 09:45:52;;;;;;;27.67;17.93;;;;;;;1.46;89.96;96303.69;5112120;28;20172;-65
2021/01/04 09:48:29;;;;;;;25.67;17.83;;;;;;;1.14;91.37;96303.13;5092967;28;20196;-64
2021/01/04 09:51:04;;;;;;;27.23;17.93;;;;;;;1.61;90.38;96304.47;5112554;28;20618;-65
2021/01/04 09:53:34;;;;;;;28.73;18.40;;;;;;;1.12;90.47;96294.75;5132468;28;20206;-67
2021/01/04 09:56:03;;;;;;;29.13;18.90;;;;;;;1.59;89.61;96302.06;5130312;28;20175;-64
2021/01/04 09:58:29;;;;;;;28.57;18.00;;;;;;;1.50;87.67;96289.47;5115991;28;20184;-64
2021/01/04 10:01:10;;;;;;;27.40;18.27;;;;;;;1.70;87.57;96287.88;5112135;28;20235;-66
2021/01/04 10:03:36;;;;;;;27.50;17.87;;;;;;;1.60;87.42;96290.75;5131999;27;20210;-65
2021/01/04 10:06:09;;;;;;;30.07;18.63;;;;;;;1.81;86.70;96291.75;5132309;27;20274;-66
2021/01/04 10:08:37;;;;;;;32.37;19.20;;;;;;;1.56;87.10;96291.31;5148618;27;20180;-65
2021/01/04 10:11:08;;;;;;;25.87;17.50;;;;;;;1.51;85.94;96293.63;5147897;27;20174;-65
2021/01/04 10:13:38;;;;;;;28.13;18.10;;;;;;;1.75;86.46;96282.16;5151197;27;20190;-65
2021/01/04 10:16:08;;;;;;;27.90;18.03;;;;;;;1.77;86.01;96285.38;5132100;27;20530;-66
2021/01/04 10:18:52;;;;;;;28.20;18.30;;;;;;;1.75;86.37;96277.78;5134941;27;20174;-65
2021/01/04 10:21:23;;;;;;;28.70;18.17;;;;;;;1.86;87.02;96287.63;5132412;27;20199;-66
2021/01/04 10:23:59;;;;;;;26.60;17.63;;;;;;;1.67;86.93;96283.88;5134621;27;20195;-67
2021/01/04 10:26:26;;;;;;;27.37;17.87;;;;;;;1.30;88.76;96286.63;5145129;27;20171;-66
2021/01/04 10:28:52;;;;;;;26.50;16.83;;;;;;;1.27;88.88;96289.59;5155670;27;20666;-66
2021/01/04 10:31:26;;;;;;;27.27;17.73;;;;;;;1.48;88.44;96291.41;5140543;27;20198;-65
2021/01/04 10:34:10;;;;;;;26.17;17.43;;;;;;;1.27;90.12;96281.06;5147534;27;20286;-64
2021/01/04 10:36:36;;;;;;;25.60;17.07;;;;;;;1.09;89.08;96289.16;5151345;27;20196;-62
2021/01/04 10:39:02;;;;;;;27.27;18.17;;;;;;;1.01;90.23;96282.31;5137900;27;20167;-63
2021/01/04 10:41:30;;;;;;;26.70;17.63;;;;;;;1.16;90.49;96292.63;5142161;27;20197;-63
2021/01/04 10:44:33;;;;;;;27.53;18.43;;;;;;;1.18;89.65;96288.88;5146722;27;20205;-66
2021/01/04 10:47:06;;;;;;;30.07;18.03;;;;;;;1.48;87.25;96297.38;5107704;27;20199;-63
2021/01/04 10:49:34;;;;;;;26.63;16.97;;;;;;;1.36;87.32;96287.69;5150590;27;20179;-63
2021/01/04 10:52:01;;;;;;;29.23;19.03;;;;;;;1.04;89.01;96284.56;5144176;27;20720;-64
2021/01/04 10:54:35;;;;;;;27.33;17.60;;;;;;;1.21;87.34;96280.00;5154597;27;20662;-65
2021/01/04 10:57:19;;;;;;;25.70;16.97;;;;;;;1.15;88.58;96275.53;5153984;27;20178;-62
2021/01/04 10:59:54;;;;;;;24.63;17.03;;;;;;;0.91;87.73;96281.78;5141902;27;20548;-64
2021/01/04 11:02:19;;;;;;;23.50;15.90;;;;;;;0.90;85.96;96279.38;5118632;27;20263;-66
2021/01/04 11:04:55;;;;;;;23.67;15.47;;;;;;;1.03;85.16;96280.38;5100001;28;20255;-66
2021/01/04 11:07:29;;;;;;;24.20;15.33;;;;;;;0.93;85.76;96279.84;5094319;28;20177;-66
2021/01/04 11:09:55;;;;;;;25.10;16.00;;;;;;;1.19;86.88;96279.38;5096439;28;20167;-66
2021/01/04 11:12:26;;;;;;;22.60;15.90;;;;;;;1.12;86.55;96270.72;5099602;28;20643;-67
2021/01/04 11:14:53;;;;;;;23.70;16.67;;;;;;;1.19;87.30;96271.63;5100655;28;20253;-67
2021/01/04 11:17:19;;;;;;;24.00;16.07;;;;;;;1.30;87.60;96268.56;5104287;28;20176;-67
2021/01/04 11:19:44;;;;;;;19.70;12.87;;;;;;;0.96;84.53;96270.94;5100160;28;20230;-66
2021/01/04 11:22:30;;;;;;;18.43;12.87;;;;;;;0.81;84.45;96264.00;5109572;28;20195;-67
2021/01/04 11:24:56;;;;;;;18.93;13.40;;;;;;;0.75;84.33;96263.91;5101358;28;20209;-67
2021/01/04 11:27:22;;;;;;;16.13;12.00;;;;;;;0.97;83.71;96257.84;5098733;28;20237;-66
2021/01/04 11:29:48;;;;;;;16.23;11.77;;;;;;;1.21;82.01;96256.75;5099835;28;20175;-67
2021/01/04 11:32:15;;;;;;;12.70;8.90;;;;;;;1.23;78.54;96254.78;5093156;28;20233;-66
2021/01/04 11:34:46;;;;;;;16.37;9.37;;;;;;;1.01;79.35;96253.13;5104572;28;20200;-66
2021/01/04 11:37:13;;;;;;;12.57;9.47;;;;;;;0.90;79.77;96248.44;5101389;28;20198;-67
2021/01/04 11:39:38;;;;;;;12.57;9.73;;;;;;;0.90;78.98;96251.00;5105575;28;20225;-67
2021/01/04 11:42:05;;;;;;;12.20;8.63;;;;;;;0.62;78.33;96250.84;5095866;28;20208;-67
2021/01/04 11:44:31;;;;;;;9.70;7.57;;;;;;;0.61;76.88;96247.50;5112129;28;20208;-66
2021/01/04 11:46:56;;;;;;;11.47;8.20;;;;;;;0.48;79.18;96246.50;5106097;28;20595;-68
2021/01/04 11:49:22;;;;;;;9.60;7.73;;;;;;;0.48;77.50;96242.13;5101827;28;20594;-67
2021/01/04 11:51:52;;;;;;;10.17;7.87;;;;;;;0.46;79.69;96243.28;5106769;28;20199;-67
2021/01/04 11:54:18;;;;;;;12.07;8.10;;;;;;;0.44;78.44;96234.94;5106722;28;21061;-67
2021/01/04 11:56:43;;;;;;;13.77;9.73;;;;;;;0.61;79.31;96246.69;5095769;28;20176;-67
2021/01/04 11:59:09;;;;;;;13.00;8.70;;;;;;;0.89;79.07;96239.13;5101791;28;20184;-66
2021/01/04 12:01:36;;;;;;;11.50;8.20;;;;;;;0.91;78.73;96232.78;5106676;27;20272;-67
2021/01/04 12:04:03;;;;;;;13.00;8.70;;;;;;;0.84;78.42;96230.09;5153769;27;20640;-67
2021/01/04 12:06:28;;;;;;;11.93;8.23;;;;;;;0.72;77.28;96221.25;5140329;27;20175;-69
2021/01/04 12:08:54;;;;;;;13.37;9.10;;;;;;;0.51;80.07;96228.88;5145620;27;20171;-69
2021/01/04 12:11:21;;;;;;;10.87;8.37;;;;;;;0.58;78.80;96224.63;5147162;27;20166;-72
2021/01/04 12:13:51;;;;;;;14.00;9.53;;;;;;;0.30;79.67;96219.28;5145930;27;20241;-68